createdAt,value
2018-03-01T00:02:00.948Z,100644
2018-03-01T00:04:29.277Z,100643
2018-03-01T00:06:57.750Z,100648
2018-03-01T00:09:26.438Z,100646
2018-03-01T00:11:55.228Z,100644
2018-03-01T00:14:24.525Z,100647
2018-03-01T00:16:52.878Z,100647
2018-03-01T00:19:21.239Z,100653
2018-03-01T00:21:49.624Z,100655
2018-03-01T00:24:18.072Z,100648
2018-03-01T00:26:46.445Z,100653
2018-03-01T00:29:14.556Z,100647
2018-03-01T00:31:43.420Z,100633
2018-03-01T00:34:11.543Z,100627
2018-03-01T00:36:39.829Z,100627
2018-03-01T00:39:08.061Z,100621
2018-03-01T00:41:37.486Z,100619
2018-03-01T00:44:05.704Z,100616
2018-03-01T00:46:34.039Z,100609
2018-03-01T00:49:02.452Z,100603
2018-03-01T00:51:33.587Z,100601
2018-03-01T00:54:01.884Z,100590
2018-03-01T00:56:30.467Z,100590
2018-03-01T00:58:59.037Z,100589
2018-03-01T01:01:27.583Z,100586
2018-03-01T01:03:56.706Z,100586
2018-03-01T01:06:25.041Z,100593
2018-03-01T01:08:53.416Z,100603
2018-03-01T01:11:21.691Z,100597
2018-03-01T01:13:49.925Z,100594
2018-03-01T01:16:18.516Z,100599
2018-03-01T01:18:46.770Z,100598
2018-03-01T01:21:15.723Z,100591
2018-03-01T01:23:45.081Z,100597
2018-03-01T01:26:13.576Z,100599
2018-03-01T01:28:42.979Z,100592
2018-03-01T01:31:12.126Z,100593
2018-03-01T01:33:40.989Z,100589
2018-03-01T01:36:09.075Z,100589
2018-03-01T01:38:37.739Z,100557
2018-03-01T01:41:05.988Z,100574
2018-03-01T01:43:34.567Z,100575
2018-03-01T01:46:03.467Z,100566
2018-03-01T01:48:32.668Z,100555
2018-03-01T01:51:04.727Z,100554
2018-03-01T01:53:32.849Z,100545
2018-03-01T01:56:00.932Z,100537
2018-03-01T01:58:29.042Z,100540
2018-03-01T02:00:57.141Z,100526
2018-03-01T02:03:25.850Z,100533
2018-03-01T02:05:53.976Z,100529
2018-03-01T02:08:22.059Z,100523
2018-03-01T02:10:50.171Z,100507
2018-03-01T02:13:18.367Z,100516
2018-03-01T02:15:46.450Z,100505
2018-03-01T02:18:14.542Z,100495
2018-03-01T02:20:42.686Z,100504
2018-03-01T02:23:10.799Z,100499
2018-03-01T02:25:38.902Z,100500
2018-03-01T02:28:06.990Z,100498
2018-03-01T02:30:35.958Z,100488
2018-03-01T02:33:05.619Z,100487
2018-03-01T02:35:33.735Z,100481
2018-03-01T02:38:01.841Z,100486
2018-03-01T02:40:29.958Z,100465
2018-03-01T02:42:58.437Z,100459
2018-03-01T02:45:26.724Z,100449
2018-03-01T02:47:56.218Z,100425
2018-03-01T02:50:25.416Z,100424
2018-03-01T02:52:53.906Z,100413
2018-03-01T02:55:22.275Z,100397
2018-03-01T02:57:50.454Z,100401
2018-03-01T03:00:18.545Z,100399
2018-03-01T03:02:47.664Z,100396
2018-03-01T03:05:17.051Z,100409
2018-03-01T03:07:45.403Z,100403
2018-03-01T03:10:14.599Z,100036
2018-03-01T03:12:43.552Z,100381
2018-03-01T03:15:12.177Z,100384
2018-03-01T03:17:40.466Z,100395
2018-03-01T03:20:09.545Z,100394
2018-03-01T03:22:38.718Z,100382
2018-03-01T03:25:06.941Z,100386
2018-03-01T03:27:35.223Z,100379
2018-03-01T03:30:03.342Z,100388
2018-03-01T03:32:31.571Z,100387
2018-03-01T03:35:00.745Z,100383
2018-03-01T03:37:28.999Z,100380
2018-03-01T03:39:57.312Z,100368
2018-03-01T03:42:27.043Z,100368
2018-03-01T03:44:56.147Z,100369
2018-03-01T03:47:24.689Z,100367
2018-03-01T03:49:53.752Z,100370
2018-03-01T03:52:22.108Z,100374
2018-03-01T03:54:50.723Z,100367
2018-03-01T03:57:19.180Z,100345
2018-03-01T03:59:47.636Z,100351
2018-03-01T04:02:16.776Z,100354
2018-03-01T04:04:44.888Z,100358
2018-03-01T04:07:12.979Z,100360
2018-03-01T04:09:41.192Z,100353
2018-03-01T04:12:09.540Z,100365
2018-03-01T04:14:37.964Z,100351
2018-03-01T04:17:06.212Z,100348
2018-03-01T04:19:34.661Z,100347
2018-03-01T04:22:02.962Z,100339
2018-03-01T04:24:32.122Z,100336
2018-03-01T04:27:00.568Z,100330
2018-03-01T04:29:28.764Z,100336
2018-03-01T04:31:56.883Z,100348
2018-03-01T04:34:24.981Z,100238
2018-03-01T04:36:53.072Z,100337
2018-03-01T04:39:21.212Z,100340
2018-03-01T04:41:50.091Z,100336
2018-03-01T04:44:18.951Z,100322
2018-03-01T04:46:47.073Z,100333
2018-03-01T04:49:15.944Z,100322
2018-03-01T04:51:44.033Z,100299
2018-03-01T04:54:14.758Z,100322
2018-03-01T04:56:43.037Z,100311
2018-03-01T04:59:11.908Z,100299
2018-03-01T05:01:39.999Z,100305
2018-03-01T05:04:08.120Z,100289
2018-03-01T05:06:36.334Z,100291
2018-03-01T05:09:05.220Z,100278
2018-03-01T05:11:33.318Z,100286
2018-03-01T05:14:02.168Z,100291
2018-03-01T05:16:30.378Z,100301
2018-03-01T05:18:59.228Z,100311
2018-03-01T05:21:27.479Z,100312
2018-03-01T05:23:55.579Z,100324
2018-03-01T05:26:23.720Z,100322
2018-03-01T05:28:52.002Z,100325
2018-03-01T05:31:20.124Z,100333
2018-03-01T05:33:48.213Z,100347
2018-03-01T05:36:17.156Z,100347
2018-03-01T05:38:45.555Z,100340
2018-03-01T05:41:13.699Z,100335
2018-03-01T05:43:41.812Z,100325
2018-03-01T05:46:09.912Z,100319
2018-03-01T05:48:38.779Z,100321
2018-03-01T05:51:06.871Z,100320
2018-03-01T05:53:35.736Z,100310
2018-03-01T05:56:03.846Z,100308
2018-03-01T05:58:31.952Z,100297
2018-03-01T06:01:00.057Z,100283
2018-03-01T06:03:28.144Z,100283
2018-03-01T06:05:56.255Z,100292
2018-03-01T06:08:24.350Z,100287
2018-03-01T06:10:52.435Z,100293
2018-03-01T06:13:20.540Z,100292
2018-03-01T06:15:49.405Z,100306
2018-03-01T06:18:17.517Z,100297
2018-03-01T06:20:45.606Z,100286
2018-03-01T06:23:13.710Z,100289
2018-03-01T06:25:41.798Z,100286
2018-03-01T06:28:09.903Z,100296
2018-03-01T06:30:38.008Z,100291
2018-03-01T06:33:06.343Z,100279
2018-03-01T06:35:34.456Z,100278
2018-03-01T06:38:02.584Z,100279
2018-03-01T06:40:31.663Z,100285
2018-03-01T06:42:59.892Z,100283
2018-03-01T06:45:27.995Z,100277
2018-03-01T06:47:56.096Z,100286
2018-03-01T06:50:24.191Z,100270
2018-03-01T06:52:52.681Z,100275
2018-03-01T06:55:20.800Z,100272
2018-03-01T06:57:48.885Z,100276
2018-03-01T07:00:16.989Z,100254
2018-03-01T07:02:45.076Z,100257
2018-03-01T07:05:13.200Z,100285
2018-03-01T07:07:41.878Z,100274
2018-03-01T07:10:09.973Z,100273
2018-03-01T07:12:38.084Z,100273
2018-03-01T07:15:06.167Z,100267
2018-03-01T07:17:34.272Z,100265
2018-03-01T07:20:02.372Z,100264
2018-03-01T07:22:31.243Z,100261
2018-03-01T07:24:59.348Z,100263
2018-03-01T07:27:27.443Z,100262
2018-03-01T07:29:55.552Z,100251
2018-03-01T07:32:23.680Z,100255
2018-03-01T07:34:51.799Z,100247
2018-03-01T07:37:19.924Z,100243
2018-03-01T07:39:48.031Z,100243
2018-03-01T07:42:16.172Z,100249
2018-03-01T07:44:44.984Z,100245
2018-03-01T07:47:13.171Z,100237
2018-03-01T07:49:41.303Z,100235
2018-03-01T07:52:09.389Z,100218
2018-03-01T07:54:37.486Z,100216
2018-03-01T07:57:05.591Z,100216
2018-03-01T07:59:33.703Z,100211
2018-03-01T08:02:01.798Z,100201
2018-03-01T08:04:29.910Z,100207
2018-03-01T08:06:58.486Z,100205
2018-03-01T08:09:27.336Z,100209
2018-03-01T08:11:55.462Z,100198
2018-03-01T08:14:23.560Z,100206
2018-03-01T08:16:51.668Z,100200
2018-03-01T08:19:19.755Z,100191
2018-03-01T08:21:47.919Z,100178
2018-03-01T08:24:16.008Z,100181
2018-03-01T08:26:44.098Z,100192
2018-03-01T08:29:12.199Z,100178
2018-03-01T08:31:40.288Z,100180
2018-03-01T08:34:08.383Z,100176
2018-03-01T08:36:36.572Z,100166
2018-03-01T08:39:05.792Z,100173
2018-03-01T08:41:33.902Z,100175
2018-03-01T08:44:02.021Z,100171
2018-03-01T08:46:30.896Z,100157
2018-03-01T08:48:58.978Z,100153
2018-03-01T08:51:27.082Z,100134
2018-03-01T08:53:55.184Z,100127
2018-03-01T08:56:23.351Z,100125
2018-03-01T08:58:51.453Z,100129
2018-03-01T09:01:20.578Z,100119
2018-03-01T09:03:49.439Z,100120
2018-03-01T09:06:17.545Z,100109
2018-03-01T09:08:46.402Z,100102
2018-03-01T09:11:14.508Z,100084
2018-03-01T09:13:43.397Z,100091
2018-03-01T09:16:11.484Z,100081
2018-03-01T09:18:39.719Z,100057
2018-03-01T09:21:07.878Z,100062
2018-03-01T09:23:35.983Z,100066
2018-03-01T09:26:04.065Z,100058
2018-03-01T09:28:33.431Z,100057
2018-03-01T09:31:01.529Z,100061
2018-03-01T09:33:30.406Z,100062
2018-03-01T09:35:58.492Z,100057
2018-03-01T09:38:27.358Z,100044
2018-03-01T09:40:55.451Z,100048
2018-03-01T09:43:23.622Z,100045
2018-03-01T09:45:51.723Z,100042
2018-03-01T09:48:20.880Z,100040
2018-03-01T09:50:48.993Z,100043
2018-03-01T09:53:17.089Z,100040
2018-03-01T09:55:45.181Z,100041
2018-03-01T09:58:13.378Z,100032
2018-03-01T10:00:41.515Z,100021
2018-03-01T10:03:09.612Z,100021
2018-03-01T10:05:38.020Z,100028
2018-03-01T10:08:07.504Z,100032
2018-03-01T10:10:36.402Z,100038
2018-03-01T10:13:04.478Z,100026
2018-03-01T10:15:33.414Z,100034
2018-03-01T10:18:01.524Z,100020
2018-03-01T10:20:29.632Z,100028
2018-03-01T10:22:58.494Z,100030
2018-03-01T10:25:26.596Z,100034
2018-03-01T10:27:54.705Z,100033
2018-03-01T10:30:22.784Z,100028
2018-03-01T10:32:50.876Z,100028
2018-03-01T10:35:18.978Z,100015
2018-03-01T10:37:47.104Z,100007
2018-03-01T10:40:15.214Z,99994
2018-03-01T10:42:44.078Z,99998
2018-03-01T10:45:12.156Z,99997
2018-03-01T10:47:40.261Z,99985
2018-03-01T10:50:09.131Z,99991
2018-03-01T10:52:37.714Z,100000
2018-03-01T10:55:06.150Z,100001
2018-03-01T10:57:34.228Z,100000
2018-03-01T11:00:02.349Z,99995
2018-03-01T11:02:31.195Z,99981
2018-03-01T11:04:59.274Z,99980
2018-03-01T11:07:27.452Z,99975
2018-03-01T11:09:55.536Z,99962
2018-03-01T11:12:23.666Z,99959
2018-03-01T11:14:52.544Z,99956
2018-03-01T11:17:20.619Z,99952
2018-03-01T11:19:48.731Z,99935
2018-03-01T11:22:16.839Z,99939
2018-03-01T11:24:45.719Z,99923
2018-03-01T11:27:13.811Z,99913
2018-03-01T11:29:42.658Z,99920
2018-03-01T11:32:11.358Z,99903
2018-03-01T11:34:39.532Z,99905
2018-03-01T11:37:07.704Z,99901
2018-03-01T11:39:35.859Z,99891
2018-03-01T11:42:03.971Z,99884
2018-03-01T11:44:32.824Z,99883
2018-03-01T11:47:00.920Z,99876
2018-03-01T11:49:29.016Z,99876
2018-03-01T11:51:57.841Z,99875
2018-03-01T11:54:26.881Z,99866
2018-03-01T11:56:54.960Z,99874
2018-03-01T11:59:24.779Z,99860
2018-03-01T12:01:53.628Z,99855
2018-03-01T12:04:21.740Z,99854
2018-03-01T12:06:50.584Z,99844
2018-03-01T12:09:18.701Z,99854
2018-03-01T12:11:47.548Z,99838
2018-03-01T12:14:15.623Z,99842
2018-03-01T12:16:43.787Z,99831
2018-03-01T12:19:12.933Z,99832
2018-03-01T12:21:41.045Z,99835
2018-03-01T12:24:09.157Z,99829
2018-03-01T12:26:37.240Z,99826
2018-03-01T12:29:05.307Z,99825
2018-03-01T12:31:33.404Z,99824
2018-03-01T12:34:01.471Z,99829
2018-03-01T12:36:29.568Z,99828
2018-03-01T12:38:57.677Z,99826
2018-03-01T12:41:25.773Z,99819
2018-03-01T12:43:53.844Z,99810
2018-03-01T12:46:21.951Z,99817
2018-03-01T12:48:50.343Z,99811
2018-03-01T12:51:18.417Z,99802
2018-03-01T12:53:46.526Z,99804
2018-03-01T12:56:14.637Z,99810
2018-03-01T12:58:43.523Z,99805
2018-03-01T13:01:12.368Z,99798
2018-03-01T13:03:40.461Z,99796
2018-03-01T13:06:08.564Z,99795
2018-03-01T13:08:36.876Z,99789
2018-03-01T13:11:04.968Z,99806
2018-03-01T13:13:33.226Z,99786
2018-03-01T13:16:01.315Z,99786
2018-03-01T13:18:30.201Z,99772
2018-03-01T13:20:58.318Z,99767
2018-03-01T13:23:26.463Z,99770
2018-03-01T13:25:54.533Z,99773
2018-03-01T13:28:22.897Z,99772
2018-03-01T13:30:55.363Z,99771
2018-03-01T13:36:25.736Z,99765
2018-03-01T13:38:53.861Z,99754
2018-03-01T13:41:21.948Z,99746
2018-03-01T13:43:50.036Z,99737
2018-03-01T13:46:38.785Z,99746
2018-03-01T13:49:06.936Z,99735
2018-03-01T13:51:35.014Z,99724
2018-03-01T13:54:03.109Z,99723
2018-03-01T13:56:31.311Z,99729
2018-03-01T13:58:59.396Z,99712
2018-03-01T14:01:28.229Z,99715
2018-03-01T14:03:57.525Z,99703
2018-03-01T14:06:31.184Z,99709
2018-03-01T14:09:01.927Z,99700
2018-03-01T14:11:30.139Z,99694
2018-03-01T14:14:04.173Z,99684
2018-03-01T14:16:32.315Z,99688
2018-03-01T14:19:04.184Z,99693
2018-03-01T14:21:35.804Z,99681
2018-03-01T14:24:19.722Z,99688
2018-03-01T14:26:50.819Z,99686
2018-03-01T14:29:24.626Z,99691
2018-03-01T14:31:52.723Z,99693
2018-03-01T14:34:20.823Z,99683
2018-03-01T14:36:48.921Z,99684
2018-03-01T14:39:16.985Z,99692
2018-03-01T14:41:45.889Z,99680
2018-03-01T14:44:14.149Z,99672
2018-03-01T14:46:43.004Z,99669
2018-03-01T14:49:11.084Z,99667
2018-03-01T14:51:39.169Z,99656
2018-03-01T14:54:08.351Z,99655
2018-03-01T14:56:36.439Z,99650
2018-03-01T14:59:04.600Z,99647
2018-03-01T15:01:32.676Z,99647
2018-03-01T15:04:00.770Z,99646
2018-03-01T15:06:28.852Z,99642
2018-03-01T15:08:57.009Z,99644
2018-03-01T15:11:25.096Z,99647
2018-03-01T15:13:53.224Z,99649
2018-03-01T15:16:21.313Z,99639
2018-03-01T15:18:49.408Z,99641
2018-03-01T15:21:17.527Z,99636
2018-03-01T15:23:45.630Z,99632
2018-03-01T15:26:13.742Z,99630
2018-03-01T15:28:42.795Z,99624
2018-03-01T15:31:10.892Z,99629
2018-03-01T15:33:39.765Z,99617
2018-03-01T15:36:07.866Z,99614
2018-03-01T15:38:35.969Z,99611
2018-03-01T15:41:04.057Z,99610
2018-03-01T15:43:32.162Z,99615
2018-03-01T15:46:00.237Z,99605
2018-03-01T15:48:28.337Z,99609
2018-03-01T15:50:56.440Z,99607
2018-03-01T15:53:24.521Z,99598
2018-03-01T15:55:52.619Z,99599
2018-03-01T15:58:21.470Z,99611
2018-03-01T16:00:49.554Z,99603
2018-03-01T16:03:17.655Z,99598
2018-03-01T16:05:45.730Z,99593
2018-03-01T16:08:14.595Z,99591
2018-03-01T16:10:42.672Z,99603
2018-03-01T16:13:10.801Z,99603
2018-03-01T16:15:38.888Z,99613
2018-03-01T16:18:07.176Z,99611
2018-03-01T16:20:35.319Z,99614
2018-03-01T16:23:03.419Z,99626
2018-03-01T16:25:32.072Z,99621
2018-03-01T16:28:01.013Z,99621
2018-03-01T16:30:29.256Z,99625
2018-03-01T16:32:58.588Z,99620
2018-03-01T16:35:28.149Z,99614
2018-03-01T16:37:57.255Z,99621
2018-03-01T16:40:25.756Z,99603
2018-03-01T16:42:53.995Z,99616
2018-03-01T16:45:22.405Z,99630
2018-03-01T16:47:51.067Z,99630
2018-03-01T16:50:19.559Z,99625
2018-03-01T16:52:48.234Z,99625
2018-03-01T16:55:16.616Z,99630
2018-03-01T16:57:45.208Z,99636
2018-03-01T17:00:13.585Z,99647
2018-03-01T17:02:41.900Z,99647
2018-03-01T17:05:10.378Z,99642
2018-03-01T17:07:38.667Z,99647
2018-03-01T17:10:06.790Z,99646
2018-03-01T17:12:34.995Z,99654
2018-03-01T17:15:03.426Z,99638
2018-03-01T17:17:31.758Z,99648
2018-03-01T17:20:00.215Z,99649
2018-03-01T17:22:28.302Z,99656
2018-03-01T17:24:57.202Z,99667
2018-03-01T17:27:25.288Z,99658
2018-03-01T17:29:54.370Z,99658
2018-03-01T17:32:22.744Z,99660
2018-03-01T17:34:51.004Z,99647
2018-03-01T17:37:20.897Z,99644
2018-03-01T17:39:49.120Z,99643
2018-03-01T17:42:17.485Z,99640
2018-03-01T17:44:46.165Z,99640
2018-03-01T17:47:14.801Z,99633
2018-03-01T17:49:43.999Z,99637
2018-03-01T17:52:12.880Z,99645
2018-03-01T17:54:41.406Z,99641
2018-03-01T17:57:09.528Z,99647
2018-03-01T17:59:38.761Z,99647
2018-03-01T18:02:07.058Z,99641
2018-03-01T18:04:35.203Z,99642
2018-03-01T18:07:05.833Z,99651
2018-03-01T18:09:33.957Z,99640
2018-03-01T18:12:02.178Z,99634
2018-03-01T18:14:31.056Z,99632
2018-03-01T18:16:59.162Z,99628
2018-03-01T18:19:27.256Z,99636
2018-03-01T18:21:55.392Z,99642
2018-03-01T18:24:24.280Z,99629
2018-03-01T18:26:52.381Z,99646
2018-03-01T18:29:20.517Z,99627
2018-03-01T18:31:48.628Z,99632
2018-03-01T18:34:17.504Z,99628
2018-03-01T18:36:45.607Z,99621
2018-03-01T18:39:13.725Z,99631
2018-03-01T18:41:42.584Z,99625
2018-03-01T18:44:10.688Z,99622
2018-03-01T18:46:39.569Z,99624
2018-03-01T18:49:07.653Z,99486
2018-03-01T18:51:36.539Z,99618
2018-03-01T18:54:05.423Z,99627
2018-03-01T18:56:33.539Z,99627
2018-03-01T18:59:02.053Z,99623
2018-03-01T19:01:30.479Z,99618
2018-03-01T19:03:58.623Z,99623
2018-03-01T19:06:26.736Z,99627
2018-03-01T19:08:54.955Z,99626
2018-03-01T19:11:23.614Z,99625
2018-03-01T19:13:53.087Z,99626
2018-03-01T19:16:21.972Z,99620
2018-03-01T19:18:50.879Z,99618
2018-03-01T19:21:19.777Z,99630
2018-03-01T19:23:47.940Z,99632
2018-03-01T19:26:15.988Z,99625
2018-03-01T19:28:44.099Z,99623
2018-03-01T19:31:12.207Z,99615
2018-03-01T19:33:40.488Z,99611
2018-03-01T19:36:10.152Z,99606
2018-03-01T19:38:39.636Z,99608
2018-03-01T19:41:07.755Z,99604
2018-03-01T19:43:36.913Z,99594
2018-03-01T19:46:05.024Z,99588
2018-03-01T19:48:33.125Z,99592
2018-03-01T19:51:01.218Z,99592
2018-03-01T19:53:30.095Z,99594
2018-03-01T19:55:58.778Z,99588
2018-03-01T19:58:27.000Z,99582
2018-03-01T20:00:55.112Z,99581
2018-03-01T20:03:23.207Z,99580
2018-03-01T20:05:51.524Z,99576
2018-03-01T20:08:19.947Z,99570
2018-03-01T20:10:48.426Z,99572
2018-03-01T20:13:16.510Z,99578
2018-03-01T20:15:44.596Z,99581
2018-03-01T20:18:12.696Z,99577
2018-03-01T20:20:40.932Z,99564
2018-03-01T20:23:10.983Z,99565
2018-03-01T20:25:39.073Z,99568
2018-03-01T20:28:07.168Z,99552
2018-03-01T20:30:35.288Z,99561
2018-03-01T20:33:03.368Z,99563
2018-03-01T20:35:31.504Z,99557
2018-03-01T20:37:59.624Z,99575
2018-03-01T20:40:27.743Z,99553
2018-03-01T20:42:55.829Z,99557
2018-03-01T20:45:23.967Z,99565
2018-03-01T20:47:52.915Z,99557
2018-03-01T20:50:21.996Z,99564
2018-03-01T20:52:50.096Z,99553
2018-03-01T20:55:18.210Z,99552
2018-03-01T20:57:47.364Z,99549
2018-03-01T21:00:15.684Z,99548
2018-03-01T21:02:43.892Z,99545
2018-03-01T21:05:12.007Z,99541
2018-03-01T21:07:40.117Z,99535
2018-03-01T21:10:08.206Z,99538
2018-03-01T21:12:36.354Z,99542
2018-03-01T21:15:04.496Z,99539
2018-03-01T21:17:32.613Z,99528
2018-03-01T21:20:00.704Z,99537
2018-03-01T21:22:28.844Z,99536
2018-03-01T21:24:56.936Z,99535
2018-03-01T21:27:25.035Z,99526
2018-03-01T21:29:53.915Z,99542
2018-03-01T21:32:22.034Z,99536
2018-03-01T21:34:50.124Z,99536
2018-03-01T21:37:18.275Z,99542
2018-03-01T21:39:46.386Z,99533
2018-03-01T21:42:14.490Z,99538
2018-03-01T21:44:43.367Z,99533
2018-03-01T21:47:11.476Z,99534
2018-03-01T21:49:40.254Z,99520
2018-03-01T21:52:08.393Z,99526
2018-03-01T21:54:36.502Z,99520
2018-03-01T21:57:04.618Z,99517
2018-03-01T21:59:32.764Z,99510
2018-03-01T22:02:00.880Z,99512
2018-03-01T22:04:28.995Z,99503
2018-03-01T22:06:57.157Z,99494
2018-03-01T22:12:19.515Z,99496
2018-03-01T22:14:56.338Z,99372
2018-03-01T22:17:24.440Z,99502
2018-03-01T22:19:52.546Z,99509
2018-03-01T22:22:20.645Z,99500
2018-03-01T22:24:48.720Z,99499
2018-03-01T22:27:16.828Z,99494
2018-03-01T22:29:44.924Z,99498
2018-03-01T22:32:13.816Z,99493
2018-03-01T22:34:42.673Z,99491
2018-03-01T22:37:10.771Z,99494
2018-03-01T22:39:39.632Z,99503
2018-03-01T22:42:07.735Z,99507
2018-03-01T22:44:36.605Z,99500
2018-03-01T22:47:04.694Z,99493
2018-03-01T22:49:32.793Z,99466
2018-03-01T22:52:01.873Z,99490
2018-03-01T22:54:30.764Z,99483
2018-03-01T22:56:59.640Z,99488
2018-03-01T22:59:27.744Z,99490
2018-03-01T23:01:57.875Z,99489
2018-03-01T23:04:26.009Z,99475
2018-03-01T23:06:54.117Z,99484
2018-03-01T23:09:22.209Z,99483
2018-03-01T23:11:50.320Z,99489
2018-03-01T23:14:18.457Z,99489
2018-03-01T23:16:46.607Z,99488
2018-03-01T23:19:14.811Z,99486
2018-03-01T23:21:46.131Z,99479
2018-03-01T23:24:14.239Z,99471
2018-03-01T23:26:42.326Z,99477
2018-03-01T23:29:10.436Z,99474
2018-03-01T23:31:38.528Z,99470
2018-03-01T23:34:06.632Z,99461
2018-03-01T23:36:34.717Z,99465
2018-03-01T23:39:02.831Z,99459
2018-03-01T23:41:30.923Z,99453
2018-03-01T23:43:59.780Z,99460
2018-03-01T23:46:28.647Z,99464
2018-03-01T23:48:56.727Z,99461
2018-03-01T23:51:24.845Z,99445
2018-03-01T23:53:52.936Z,99442
2018-03-01T23:56:21.033Z,99432
2018-03-01T23:58:49.140Z,99436
